sensor_id;sensor_type;location;lat;lon;timestamp;temperature;humidity
16313;DHT22;8265;52.622;13.296;2023-05-20T00:04:46;10.10;72.50
16313;DHT22;8265;52.622;13.296;2023-05-20T00:10:07;9.70;73.90
16313;DHT22;8265;52.622;13.296;2023-05-20T00:15:28;10.00;73.60
16313;DHT22;8265;52.622;13.296;2023-05-20T00:20:49;10.00;73.60
16313;DHT22;8265;52.622;13.296;2023-05-20T00:26:10;10.00;73.50
16313;DHT22;8265;52.622;13.296;2023-05-20T00:31:31;10.20;73.00
16313;DHT22;8265;52.622;13.296;2023-05-20T00:36:52;10.00;74.20
16313;DHT22;8265;52.622;13.296;2023-05-20T00:42:20;10.00;74.10
16313;DHT22;8265;52.622;13.296;2023-05-20T00:47:34;9.90;74.50
16313;DHT22;8265;52.622;13.296;2023-05-20T00:52:55;10.00;74.70
16313;DHT22;8265;52.622;13.296;2023-05-20T00:58:16;9.80;74.80
16313;DHT22;8265;52.622;13.296;2023-05-20T01:03:37;9.50;76.20
16313;DHT22;8265;52.622;13.296;2023-05-20T01:08:58;9.50;76.70
16313;DHT22;8265;52.622;13.296;2023-05-20T01:14:19;10.10;75.10
16313;DHT22;8265;52.622;13.296;2023-05-20T01:19:41;9.60;76.50
16313;DHT22;8265;52.622;13.296;2023-05-20T01:25:01;9.70;76.40
16313;DHT22;8265;52.622;13.296;2023-05-20T01:30:22;9.40;76.90
16313;DHT22;8265;52.622;13.296;2023-05-20T01:35:43;9.40;77.70
16313;DHT22;8265;52.622;13.296;2023-05-20T01:41:04;9.40;77.70
16313;DHT22;8265;52.622;13.296;2023-05-20T01:46:25;9.40;78.00
16313;DHT22;8265;52.622;13.296;2023-05-20T01:51:46;9.70;76.60
16313;DHT22;8265;52.622;13.296;2023-05-20T01:57:07;9.30;78.10
16313;DHT22;8265;52.622;13.296;2023-05-20T02:02:28;9.00;79.10
16313;DHT22;8265;52.622;13.296;2023-05-20T02:07:49;9.10;79.30
16313;DHT22;8265;52.622;13.296;2023-05-20T02:13:10;9.20;78.60
16313;DHT22;8265;52.622;13.296;2023-05-20T02:18:31;9.30;78.20
16313;DHT22;8265;52.622;13.296;2023-05-20T02:23:52;9.20;78.30
16313;DHT22;8265;52.622;13.296;2023-05-20T02:29:13;9.40;77.80
16313;DHT22;8265;52.622;13.296;2023-05-20T02:34:34;9.40;77.40
16313;DHT22;8265;52.622;13.296;2023-05-20T02:39:55;9.40;77.60
16313;DHT22;8265;52.622;13.296;2023-05-20T02:45:16;9.30;77.80
16313;DHT22;8265;52.622;13.296;2023-05-20T02:50:37;9.40;77.00
16313;DHT22;8265;52.622;13.296;2023-05-20T02:55:58;9.10;77.90
16313;DHT22;8265;52.622;13.296;2023-05-20T03:01:19;9.00;79.10
16313;DHT22;8265;52.622;13.296;2023-05-20T03:06:40;8.90;78.90
16313;DHT22;8265;52.622;13.296;2023-05-20T03:12:01;8.90;79.20
16313;DHT22;8265;52.622;13.296;2023-05-20T03:17:22;9.20;77.90
16313;DHT22;8265;52.622;13.296;2023-05-20T03:22:43;9.20;77.50
16313;DHT22;8265;52.622;13.296;2023-05-20T03:28:04;8.80;79.20
16313;DHT22;8265;52.622;13.296;2023-05-20T03:33:25;8.90;79.30
16313;DHT22;8265;52.622;13.296;2023-05-20T03:38:46;8.90;79.20
16313;DHT22;8265;52.622;13.296;2023-05-20T03:44:07;8.80;79.80
16313;DHT22;8265;52.622;13.296;2023-05-20T03:49:28;9.20;78.60
16313;DHT22;8265;52.622;13.296;2023-05-20T03:54:49;9.50;77.50
16313;DHT22;8265;52.622;13.296;2023-05-20T04:00:10;9.50;77.80
16313;DHT22;8265;52.622;13.296;2023-05-20T04:05:31;9.60;77.30
16313;DHT22;8265;52.622;13.296;2023-05-20T04:10:56;9.60;77.70
16313;DHT22;8265;52.622;13.296;2023-05-20T04:16:13;9.60;78.10
16313;DHT22;8265;52.622;13.296;2023-05-20T04:21:34;9.50;78.40
16313;DHT22;8265;52.622;13.296;2023-05-20T04:26:55;10.00;77.70
16313;DHT22;8265;52.622;13.296;2023-05-20T04:32:17;10.00;77.60
16313;DHT22;8265;52.622;13.296;2023-05-20T04:37:37;10.10;77.60
16313;DHT22;8265;52.622;13.296;2023-05-20T04:42:58;10.00;77.90
16313;DHT22;8265;52.622;13.296;2023-05-20T04:48:19;10.30;77.20
16313;DHT22;8265;52.622;13.296;2023-05-20T04:53:40;10.20;77.80
16313;DHT22;8265;52.622;13.296;2023-05-20T04:59:01;10.30;77.40
16313;DHT22;8265;52.622;13.296;2023-05-20T05:04:22;10.70;76.20
16313;DHT22;8265;52.622;13.296;2023-05-20T05:09:43;11.00;75.70
16313;DHT22;8265;52.622;13.296;2023-05-20T05:15:04;11.00;75.60
16313;DHT22;8265;52.622;13.296;2023-05-20T05:20:25;10.80;77.10
16313;DHT22;8265;52.622;13.296;2023-05-20T05:25:50;10.90;77.20
16313;DHT22;8265;52.622;13.296;2023-05-20T05:31:07;11.00;76.90
16313;DHT22;8265;52.622;13.296;2023-05-20T05:36:30;11.10;76.60
16313;DHT22;8265;52.622;13.296;2023-05-20T05:41:49;11.00;77.10
16313;DHT22;8265;52.622;13.296;2023-05-20T05:47:10;11.30;76.40
16313;DHT22;8265;52.622;13.296;2023-05-20T05:52:31;11.20;76.50
16313;DHT22;8265;52.622;13.296;2023-05-20T05:57:52;11.40;75.90
16313;DHT22;8265;52.622;13.296;2023-05-20T06:03:13;11.50;75.60
16313;DHT22;8265;52.622;13.296;2023-05-20T06:08:34;11.70;74.90
16313;DHT22;8265;52.622;13.296;2023-05-20T06:13:55;12.00;74.20
16313;DHT22;8265;52.622;13.296;2023-05-20T06:19:16;12.00;74.40
16313;DHT22;8265;52.622;13.296;2023-05-20T06:24:37;12.30;73.10
16313;DHT22;8265;52.622;13.296;2023-05-20T06:29:58;12.30;73.00
16313;DHT22;8265;52.622;13.296;2023-05-20T06:35:19;12.30;73.50
16313;DHT22;8265;52.622;13.296;2023-05-20T06:40:40;12.50;72.80
16313;DHT22;8265;52.622;13.296;2023-05-20T06:46:01;12.50;72.80
16313;DHT22;8265;52.622;13.296;2023-05-20T06:51:22;12.30;73.20
16313;DHT22;8265;52.622;13.296;2023-05-20T06:56:43;12.20;74.20
16313;DHT22;8265;52.622;13.296;2023-05-20T07:02:04;12.20;73.60
16313;DHT22;8265;52.622;13.296;2023-05-20T07:07:25;12.40;73.60
16313;DHT22;8265;52.622;13.296;2023-05-20T07:12:46;12.80;72.20
16313;DHT22;8265;52.622;13.296;2023-05-20T07:18:07;12.90;73.00
16313;DHT22;8265;52.622;13.296;2023-05-20T07:23:28;12.80;72.30
16313;DHT22;8265;52.622;13.296;2023-05-20T07:28:49;12.80;73.00
16313;DHT22;8265;52.622;13.296;2023-05-20T07:34:10;12.80;72.90
16313;DHT22;8265;52.622;13.296;2023-05-20T07:39:31;13.00;72.10
16313;DHT22;8265;52.622;13.296;2023-05-20T07:44:52;13.20;72.00
16313;DHT22;8265;52.622;13.296;2023-05-20T07:50:13;13.10;71.70
16313;DHT22;8265;52.622;13.296;2023-05-20T07:55:34;13.60;70.60
16313;DHT22;8265;52.622;13.296;2023-05-20T08:00:55;13.80;70.40
16313;DHT22;8265;52.622;13.296;2023-05-20T08:06:16;14.00;69.50
16313;DHT22;8265;52.622;13.296;2023-05-20T08:11:37;14.50;68.40
16313;DHT22;8265;52.622;13.296;2023-05-20T08:16:58;14.80;67.60
16313;DHT22;8265;52.622;13.296;2023-05-20T08:22:19;14.70;67.40
16313;DHT22;8265;52.622;13.296;2023-05-20T08:27:40;14.90;67.30
16313;DHT22;8265;52.622;13.296;2023-05-20T08:33:01;15.30;66.80
16313;DHT22;8265;52.622;13.296;2023-05-20T08:38:22;15.80;65.50
16313;DHT22;8265;52.622;13.296;2023-05-20T08:43:43;15.80;65.60
16313;DHT22;8265;52.622;13.296;2023-05-20T08:49:04;15.70;65.70
16313;DHT22;8265;52.622;13.296;2023-05-20T08:54:25;15.90;64.60
16313;DHT22;8265;52.622;13.296;2023-05-20T08:59:46;16.00;65.60
16313;DHT22;8265;52.622;13.296;2023-05-20T09:05:08;16.50;63.60
16313;DHT22;8265;52.622;13.296;2023-05-20T09:10:28;17.20;61.50
16313;DHT22;8265;52.622;13.296;2023-05-20T09:15:49;17.40;60.20
16313;DHT22;8265;52.622;13.296;2023-05-20T09:21:10;17.50;60.80
16313;DHT22;8265;52.622;13.296;2023-05-20T09:26:31;17.20;61.10
16313;DHT22;8265;52.622;13.296;2023-05-20T09:31:54;17.00;61.00
16313;DHT22;8265;52.622;13.296;2023-05-20T09:37:13;16.70;62.30
16313;DHT22;8265;52.622;13.296;2023-05-20T09:42:38;16.40;63.30
16313;DHT22;8265;52.622;13.296;2023-05-20T09:47:55;16.80;63.40
16313;DHT22;8265;52.622;13.296;2023-05-20T09:53:16;17.00;62.00
16313;DHT22;8265;52.622;13.296;2023-05-20T09:58:37;16.90;62.70
16313;DHT22;8265;52.622;13.296;2023-05-20T10:03:58;17.00;62.50
16313;DHT22;8265;52.622;13.296;2023-05-20T10:15:03;17.50;61.40
16313;DHT22;8265;52.622;13.296;2023-05-20T10:20:01;17.50;61.00
16313;DHT22;8265;52.622;13.296;2023-05-20T10:25:23;17.00;62.70
16313;DHT22;8265;52.622;13.296;2023-05-20T10:30:48;16.80;63.80
16313;DHT22;8265;52.622;13.296;2023-05-20T10:36:04;17.00;62.50
16313;DHT22;8265;52.622;13.296;2023-05-20T10:41:26;17.20;62.90
16313;DHT22;8265;52.622;13.296;2023-05-20T10:46:46;17.50;61.50
16313;DHT22;8265;52.622;13.296;2023-05-20T10:52:07;17.70;60.50
16313;DHT22;8265;52.622;13.296;2023-05-20T10:57:28;17.40;61.40
16313;DHT22;8265;52.622;13.296;2023-05-20T11:02:49;16.90;63.20
16313;DHT22;8265;52.622;13.296;2023-05-20T11:08:10;17.30;63.30
16313;DHT22;8265;52.622;13.296;2023-05-20T11:13:31;17.50;62.40
16313;DHT22;8265;52.622;13.296;2023-05-20T11:18:52;17.40;63.20
16313;DHT22;8265;52.622;13.296;2023-05-20T11:24:13;17.70;62.20
16313;DHT22;8265;52.622;13.296;2023-05-20T11:29:34;18.20;62.10
16313;DHT22;8265;52.622;13.296;2023-05-20T11:34:55;18.20;60.80
16313;DHT22;8265;52.622;13.296;2023-05-20T11:40:16;18.10;60.40
16313;DHT22;8265;52.622;13.296;2023-05-20T11:45:41;18.40;60.10
16313;DHT22;8265;52.622;13.296;2023-05-20T11:50:58;19.00;58.70
16313;DHT22;8265;52.622;13.296;2023-05-20T11:56:19;19.50;57.40
16313;DHT22;8265;52.622;13.296;2023-05-20T12:01:40;19.70;56.40
16313;DHT22;8265;52.622;13.296;2023-05-20T12:07:01;20.00;57.20
16313;DHT22;8265;52.622;13.296;2023-05-20T12:12:22;19.70;56.30
16313;DHT22;8265;52.622;13.296;2023-05-20T12:17:47;19.40;57.60
16313;DHT22;8265;52.622;13.296;2023-05-20T12:23:04;19.70;57.20
16313;DHT22;8265;52.622;13.296;2023-05-20T12:28:25;20.10;56.40
16313;DHT22;8265;52.622;13.296;2023-05-20T12:33:46;19.60;57.80
16313;DHT22;8265;52.622;13.296;2023-05-20T12:39:07;20.40;56.20
16313;DHT22;8265;52.622;13.296;2023-05-20T12:44:28;20.40;55.80
16313;DHT22;8265;52.622;13.296;2023-05-20T12:49:49;21.40;56.10
16313;DHT22;8265;52.622;13.296;2023-05-20T12:55:10;20.00;56.50
16313;DHT22;8265;52.622;13.296;2023-05-20T13:00:31;20.20;56.60
16313;DHT22;8265;52.622;13.296;2023-05-20T13:05:52;20.50;56.50
16313;DHT22;8265;52.622;13.296;2023-05-20T13:11:13;20.80;54.80
16313;DHT22;8265;52.622;13.296;2023-05-20T13:16:34;20.20;56.10
16313;DHT22;8265;52.622;13.296;2023-05-20T13:21:55;20.30;56.40
16313;DHT22;8265;52.622;13.296;2023-05-20T13:27:16;19.50;57.30
16313;DHT22;8265;52.622;13.296;2023-05-20T13:32:37;20.20;57.20
16313;DHT22;8265;52.622;13.296;2023-05-20T13:37:58;20.80;56.30
16313;DHT22;8265;52.622;13.296;2023-05-20T13:43:19;21.20;54.70
16313;DHT22;8265;52.622;13.296;2023-05-20T13:48:40;21.70;55.00
16313;DHT22;8265;52.622;13.296;2023-05-20T13:54:02;21.10;55.00
16313;DHT22;8265;52.622;13.296;2023-05-20T13:59:22;21.50;55.00
16313;DHT22;8265;52.622;13.296;2023-05-20T14:04:43;21.50;54.00
16313;DHT22;8265;52.622;13.296;2023-05-20T14:10:05;22.50;53.20
16313;DHT22;8265;52.622;13.296;2023-05-20T14:15:25;23.60;49.70
16313;DHT22;8265;52.622;13.296;2023-05-20T14:20:46;23.50;49.90
16313;DHT22;8265;52.622;13.296;2023-05-20T14:26:07;23.50;49.50
16313;DHT22;8265;52.622;13.296;2023-05-20T14:31:28;23.50;50.00
16313;DHT22;8265;52.622;13.296;2023-05-20T14:36:49;24.00;48.30
16313;DHT22;8265;52.622;13.296;2023-05-20T14:42:10;24.50;48.30
16313;DHT22;8265;52.622;13.296;2023-05-20T14:47:31;24.50;47.60
16313;DHT22;8265;52.622;13.296;2023-05-20T14:52:52;23.90;49.70
16313;DHT22;8265;52.622;13.296;2023-05-20T14:58:13;24.20;49.50
16313;DHT22;8265;52.622;13.296;2023-05-20T15:03:34;23.80;49.50
16313;DHT22;8265;52.622;13.296;2023-05-20T15:08:55;23.50;49.20
16313;DHT22;8265;52.622;13.296;2023-05-20T15:14:16;23.60;49.50
16313;DHT22;8265;52.622;13.296;2023-05-20T15:19:37;23.80;49.70
16313;DHT22;8265;52.622;13.296;2023-05-20T15:24:58;24.20;49.10
16313;DHT22;8265;52.622;13.296;2023-05-20T15:30:19;24.40;48.60
16313;DHT22;8265;52.622;13.296;2023-05-20T15:35:40;24.40;47.70
16313;DHT22;8265;52.622;13.296;2023-05-20T15:41:01;24.20;48.70
16313;DHT22;8265;52.622;13.296;2023-05-20T15:46:22;24.40;48.20
16313;DHT22;8265;52.622;13.296;2023-05-20T15:51:43;24.40;47.80
16313;DHT22;8265;52.622;13.296;2023-05-20T15:57:04;24.20;48.80
16313;DHT22;8265;52.622;13.296;2023-05-20T16:02:25;24.20;48.90
16313;DHT22;8265;52.622;13.296;2023-05-20T16:07:46;24.10;49.10
16313;DHT22;8265;52.622;13.296;2023-05-20T16:13:07;24.20;49.30
16313;DHT22;8265;52.622;13.296;2023-05-20T16:18:28;24.00;49.00
16313;DHT22;8265;52.622;13.296;2023-05-20T16:23:49;23.40;50.20
16313;DHT22;8265;52.622;13.296;2023-05-20T16:29:10;23.60;50.90
16313;DHT22;8265;52.622;13.296;2023-05-20T16:34:31;23.30;51.40
16313;DHT22;8265;52.622;13.296;2023-05-20T16:39:52;24.20;49.70
16313;DHT22;8265;52.622;13.296;2023-05-20T16:45:13;25.00;48.60
16313;DHT22;8265;52.622;13.296;2023-05-20T16:50:34;25.40;47.20
16313;DHT22;8265;52.622;13.296;2023-05-20T16:55:55;25.00;47.60
16313;DHT22;8265;52.622;13.296;2023-05-20T17:01:16;25.10;47.20
16313;DHT22;8265;52.622;13.296;2023-05-20T17:06:37;23.20;50.20
16313;DHT22;8265;52.622;13.296;2023-05-20T17:11:58;23.00;51.70
16313;DHT22;8265;52.622;13.296;2023-05-20T17:17:19;23.00;52.00
16313;DHT22;8265;52.622;13.296;2023-05-20T17:22:40;22.10;53.90
16313;DHT22;8265;52.622;13.296;2023-05-20T17:28:01;21.40;55.00
16313;DHT22;8265;52.622;13.296;2023-05-20T17:33:22;21.50;55.50
16313;DHT22;8265;52.622;13.296;2023-05-20T17:38:43;20.50;57.30
16313;DHT22;8265;52.622;13.296;2023-05-20T17:44:04;20.30;58.00
16313;DHT22;8265;52.622;13.296;2023-05-20T17:49:25;19.60;61.20
16313;DHT22;8265;52.622;13.296;2023-05-20T17:54:46;18.90;61.70
16313;DHT22;8265;52.622;13.296;2023-05-20T18:00:07;18.40;64.00
16313;DHT22;8265;52.622;13.296;2023-05-20T18:05:28;18.00;65.30
16313;DHT22;8265;52.622;13.296;2023-05-20T18:10:49;17.90;65.70
16313;DHT22;8265;52.622;13.296;2023-05-20T18:16:10;17.60;65.80
16313;DHT22;8265;52.622;13.296;2023-05-20T18:21:31;17.40;66.60
16313;DHT22;8265;52.622;13.296;2023-05-20T18:26:52;17.10;68.20
16313;DHT22;8265;52.622;13.296;2023-05-20T18:32:13;16.90;69.00
16313;DHT22;8265;52.622;13.296;2023-05-20T18:37:34;16.70;69.30
16313;DHT22;8265;52.622;13.296;2023-05-20T18:42:55;16.70;69.50
16313;DHT22;8265;52.622;13.296;2023-05-20T18:48:16;16.60;70.40
16313;DHT22;8265;52.622;13.296;2023-05-20T18:53:37;16.40;70.40
16313;DHT22;8265;52.622;13.296;2023-05-20T18:58:58;16.10;71.50
16313;DHT22;8265;52.622;13.296;2023-05-20T19:04:19;16.00;72.10
16313;DHT22;8265;52.622;13.296;2023-05-20T19:09:40;15.90;72.20
16313;DHT22;8265;52.622;13.296;2023-05-20T19:15:01;15.70;73.30
16313;DHT22;8265;52.622;13.296;2023-05-20T19:20:22;15.70;73.30
16313;DHT22;8265;52.622;13.296;2023-05-20T19:25:43;15.70;73.60
16313;DHT22;8265;52.622;13.296;2023-05-20T19:31:04;15.60;73.40
16313;DHT22;8265;52.622;13.296;2023-05-20T19:36:25;15.70;73.60
16313;DHT22;8265;52.622;13.296;2023-05-20T19:41:46;15.60;74.30
16313;DHT22;8265;52.622;13.296;2023-05-20T19:47:07;15.50;74.90
16313;DHT22;8265;52.622;13.296;2023-05-20T19:52:29;15.40;75.00
16313;DHT22;8265;52.622;13.296;2023-05-20T19:57:49;15.50;74.90
16313;DHT22;8265;52.622;13.296;2023-05-20T20:03:10;15.40;74.60
16313;DHT22;8265;52.622;13.296;2023-05-20T20:08:31;15.40;74.90
16313;DHT22;8265;52.622;13.296;2023-05-20T20:13:52;15.30;75.60
16313;DHT22;8265;52.622;13.296;2023-05-20T20:19:14;15.30;75.20
16313;DHT22;8265;52.622;13.296;2023-05-20T20:24:34;15.30;75.70
16313;DHT22;8265;52.622;13.296;2023-05-20T20:29:55;15.20;75.60
16313;DHT22;8265;52.622;13.296;2023-05-20T20:35:16;15.30;75.40
16313;DHT22;8265;52.622;13.296;2023-05-20T20:40:39;15.30;75.60
16313;DHT22;8265;52.622;13.296;2023-05-20T20:45:58;15.30;75.70
16313;DHT22;8265;52.622;13.296;2023-05-20T20:51:19;15.30;75.70
16313;DHT22;8265;52.622;13.296;2023-05-20T20:56:40;15.20;76.00
16313;DHT22;8265;52.622;13.296;2023-05-20T21:02:01;15.00;76.10
16313;DHT22;8265;52.622;13.296;2023-05-20T21:07:22;15.20;76.00
16313;DHT22;8265;52.622;13.296;2023-05-20T21:12:43;15.10;76.10
16313;DHT22;8265;52.622;13.296;2023-05-20T21:18:04;15.00;76.60
16313;DHT22;8265;52.622;13.296;2023-05-20T21:23:25;14.90;77.20
16313;DHT22;8265;52.622;13.296;2023-05-20T21:28:46;14.70;77.60
16313;DHT22;8265;52.622;13.296;2023-05-20T21:34:07;14.60;78.00
16313;DHT22;8265;52.622;13.296;2023-05-20T21:39:28;14.40;78.40
16313;DHT22;8265;52.622;13.296;2023-05-20T21:44:49;14.30;78.90
16313;DHT22;8265;52.622;13.296;2023-05-20T21:50:10;14.20;79.70
16313;DHT22;8265;52.622;13.296;2023-05-20T21:55:31;14.10;79.70
16313;DHT22;8265;52.622;13.296;2023-05-20T22:00:52;14.00;79.50
16313;DHT22;8265;52.622;13.296;2023-05-20T22:06:13;13.90;80.20
16313;DHT22;8265;52.622;13.296;2023-05-20T22:11:34;13.90;80.10
16313;DHT22;8265;52.622;13.296;2023-05-20T22:16:55;13.70;80.20
16313;DHT22;8265;52.622;13.296;2023-05-20T22:22:16;13.60;81.40
16313;DHT22;8265;52.622;13.296;2023-05-20T22:27:37;13.50;82.10
16313;DHT22;8265;52.622;13.296;2023-05-20T22:32:58;13.50;81.40
16313;DHT22;8265;52.622;13.296;2023-05-20T22:38:19;13.60;81.10
16313;DHT22;8265;52.622;13.296;2023-05-20T22:43:40;13.60;81.20
16313;DHT22;8265;52.622;13.296;2023-05-20T22:49:01;13.40;81.90
16313;DHT22;8265;52.622;13.296;2023-05-20T22:54:22;13.30;82.30
16313;DHT22;8265;52.622;13.296;2023-05-20T22:59:43;13.50;81.40
16313;DHT22;8265;52.622;13.296;2023-05-20T23:05:04;13.30;81.40
16313;DHT22;8265;52.622;13.296;2023-05-20T23:10:25;13.10;82.40
16313;DHT22;8265;52.622;13.296;2023-05-20T23:15:46;13.00;83.20
16313;DHT22;8265;52.622;13.296;2023-05-20T23:21:07;12.90;83.50
16313;DHT22;8265;52.622;13.296;2023-05-20T23:26:28;12.80;84.60
16313;DHT22;8265;52.622;13.296;2023-05-20T23:31:49;12.70;84.80
16313;DHT22;8265;52.622;13.296;2023-05-20T23:37:10;12.50;84.90
16313;DHT22;8265;52.622;13.296;2023-05-20T23:42:31;12.70;84.50
16313;DHT22;8265;52.622;13.296;2023-05-20T23:47:52;12.70;84.50
16313;DHT22;8265;52.622;13.296;2023-05-20T23:53:13;12.70;84.30
16313;DHT22;8265;52.622;13.296;2023-05-20T23:58:34;12.50;84.90
